sensor_id;sensor_type;location;lat;lon;timestamp;P1;durP1;ratioP1;P2;durP2;ratioP2
52248;SDS011;38541;48.130;8.378;2023-08-20T00:01:15;6.55;;;4.22;;
52248;SDS011;38541;48.130;8.378;2023-08-20T00:03:48;4.63;;;4.20;;
52248;SDS011;38541;48.130;8.378;2023-08-20T00:06:16;4.30;;;3.90;;
52248;SDS011;38541;48.130;8.378;2023-08-20T00:08:43;3.95;;;3.65;;
52248;SDS011;38541;48.130;8.378;2023-08-20T00:11:10;4.28;;;3.90;;
52248;SDS011;38541;48.130;8.378;2023-08-20T00:13:38;4.03;;;3.72;;
52248;SDS011;38541;48.130;8.378;2023-08-20T00:16:05;4.43;;;3.80;;
52248;SDS011;38541;48.130;8.378;2023-08-20T00:18:32;4.55;;;4.22;;
52248;SDS011;38541;48.130;8.378;2023-08-20T00:21:02;4.25;;;3.85;;
52248;SDS011;38541;48.130;8.378;2023-08-20T00:23:29;4.63;;;4.18;;
52248;SDS011;38541;48.130;8.378;2023-08-20T00:25:55;6.50;;;3.92;;
52248;SDS011;38541;48.130;8.378;2023-08-20T00:28:22;4.28;;;3.88;;
52248;SDS011;38541;48.130;8.378;2023-08-20T00:30:49;4.70;;;4.20;;
52248;SDS011;38541;48.130;8.378;2023-08-20T00:33:15;4.65;;;4.25;;
52248;SDS011;38541;48.130;8.378;2023-08-20T00:35:41;5.20;;;4.70;;
52248;SDS011;38541;48.130;8.378;2023-08-20T00:38:08;4.32;;;4.03;;
52248;SDS011;38541;48.130;8.378;2023-08-20T00:40:34;5.10;;;4.60;;
52248;SDS011;38541;48.130;8.378;2023-08-20T00:43:01;4.63;;;4.05;;
52248;SDS011;38541;48.130;8.378;2023-08-20T00:45:28;3.97;;;3.70;;
52248;SDS011;38541;48.130;8.378;2023-08-20T00:47:55;5.30;;;4.03;;
52248;SDS011;38541;48.130;8.378;2023-08-20T00:50:23;4.72;;;4.32;;
52248;SDS011;38541;48.130;8.378;2023-08-20T00:52:49;6.07;;;4.18;;
52248;SDS011;38541;48.130;8.378;2023-08-20T00:55:16;4.22;;;3.83;;
52248;SDS011;38541;48.130;8.378;2023-08-20T00:57:43;3.83;;;3.53;;
52248;SDS011;38541;48.130;8.378;2023-08-20T01:00:10;4.53;;;4.13;;
52248;SDS011;38541;48.130;8.378;2023-08-20T01:02:38;3.88;;;3.28;;
52248;SDS011;38541;48.130;8.378;2023-08-20T01:05:06;6.10;;;4.28;;
52248;SDS011;38541;48.130;8.378;2023-08-20T01:13:15;4.97;;;3.67;;
52248;SDS011;38541;48.130;8.378;2023-08-20T01:15:42;3.97;;;3.67;;
52248;SDS011;38541;48.130;8.378;2023-08-20T01:18:09;3.90;;;3.60;;
52248;SDS011;38541;48.130;8.378;2023-08-20T01:20:39;4.80;;;3.83;;
52248;SDS011;38541;48.130;8.378;2023-08-20T01:23:19;4.50;;;3.97;;
52248;SDS011;38541;48.130;8.378;2023-08-20T01:28:34;5.85;;;4.55;;
52248;SDS011;38541;48.130;8.378;2023-08-20T01:31:02;4.90;;;4.45;;
52248;SDS011;38541;48.130;8.378;2023-08-20T01:33:30;6.78;;;4.30;;
52248;SDS011;38541;48.130;8.378;2023-08-20T01:35:57;4.72;;;4.32;;
52248;SDS011;38541;48.130;8.378;2023-08-20T01:38:24;5.45;;;4.22;;
52248;SDS011;38541;48.130;8.378;2023-08-20T01:40:50;4.68;;;4.28;;
52248;SDS011;38541;48.130;8.378;2023-08-20T01:43:17;5.20;;;4.68;;
52248;SDS011;38541;48.130;8.378;2023-08-20T01:45:43;4.88;;;4.15;;
52248;SDS011;38541;48.130;8.378;2023-08-20T01:48:10;4.38;;;3.97;;
52248;SDS011;38541;48.130;8.378;2023-08-20T01:50:36;7.80;;;4.43;;
52248;SDS011;38541;48.130;8.378;2023-08-20T01:53:03;5.15;;;4.65;;
52248;SDS011;38541;48.130;8.378;2023-08-20T01:55:30;3.92;;;3.63;;
52248;SDS011;38541;48.130;8.378;2023-08-20T01:57:58;4.35;;;3.97;;
52248;SDS011;38541;48.130;8.378;2023-08-20T02:00:25;5.03;;;4.20;;
52248;SDS011;38541;48.130;8.378;2023-08-20T02:02:52;6.57;;;5.00;;
52248;SDS011;38541;48.130;8.378;2023-08-20T02:05:19;4.55;;;3.97;;
52248;SDS011;38541;48.130;8.378;2023-08-20T02:07:46;4.72;;;4.32;;
52248;SDS011;38541;48.130;8.378;2023-08-20T02:10:13;5.07;;;4.57;;
52248;SDS011;38541;48.130;8.378;2023-08-20T02:12:40;6.38;;;4.97;;
52248;SDS011;38541;48.130;8.378;2023-08-20T02:15:07;8.05;;;4.28;;
52248;SDS011;38541;48.130;8.378;2023-08-20T02:17:34;5.15;;;4.43;;
52248;SDS011;38541;48.130;8.378;2023-08-20T02:20:02;4.60;;;4.20;;
52248;SDS011;38541;48.130;8.378;2023-08-20T02:22:31;4.65;;;4.25;;
52248;SDS011;38541;48.130;8.378;2023-08-20T02:24:57;4.50;;;4.10;;
52248;SDS011;38541;48.130;8.378;2023-08-20T02:27:24;4.57;;;4.18;;
52248;SDS011;38541;48.130;8.378;2023-08-20T02:29:50;5.40;;;4.80;;
52248;SDS011;38541;48.130;8.378;2023-08-20T02:32:17;5.85;;;5.35;;
52248;SDS011;38541;48.130;8.378;2023-08-20T02:34:48;5.10;;;4.60;;
52248;SDS011;38541;48.130;8.378;2023-08-20T02:37:16;5.15;;;4.65;;
52248;SDS011;38541;48.130;8.378;2023-08-20T02:39:43;5.20;;;4.35;;
52248;SDS011;38541;48.130;8.378;2023-08-20T02:42:10;5.93;;;4.57;;
52248;SDS011;38541;48.130;8.378;2023-08-20T02:44:36;5.40;;;4.30;;
52248;SDS011;38541;48.130;8.378;2023-08-20T02:47:03;4.40;;;4.00;;
52248;SDS011;38541;48.130;8.378;2023-08-20T02:49:30;5.38;;;4.60;;
52248;SDS011;38541;48.130;8.378;2023-08-20T02:51:56;4.20;;;3.90;;
52248;SDS011;38541;48.130;8.378;2023-08-20T02:54:23;4.88;;;4.47;;
52248;SDS011;38541;48.130;8.378;2023-08-20T02:56:49;5.53;;;4.18;;
52248;SDS011;38541;48.130;8.378;2023-08-20T02:59:16;5.22;;;4.18;;
52248;SDS011;38541;48.130;8.378;2023-08-20T03:01:42;5.13;;;4.57;;
52248;SDS011;38541;48.130;8.378;2023-08-20T03:04:09;5.30;;;4.82;;
52248;SDS011;38541;48.130;8.378;2023-08-20T03:06:36;4.70;;;3.80;;
52248;SDS011;38541;48.130;8.378;2023-08-20T03:09:03;5.07;;;4.63;;
52248;SDS011;38541;48.130;8.378;2023-08-20T03:11:30;4.90;;;4.45;;
52248;SDS011;38541;48.130;8.378;2023-08-20T03:13:56;6.13;;;4.85;;
52248;SDS011;38541;48.130;8.378;2023-08-20T03:16:23;5.82;;;4.47;;
52248;SDS011;38541;48.130;8.378;2023-08-20T03:18:50;4.85;;;4.40;;
52248;SDS011;38541;48.130;8.378;2023-08-20T03:21:16;5.32;;;4.93;;
52248;SDS011;38541;48.130;8.378;2023-08-20T03:23:42;4.95;;;4.40;;
52248;SDS011;38541;48.130;8.378;2023-08-20T03:26:09;5.18;;;4.78;;
52248;SDS011;38541;48.130;8.378;2023-08-20T03:28:36;5.75;;;5.03;;
52248;SDS011;38541;48.130;8.378;2023-08-20T03:31:02;4.45;;;4.05;;
52248;SDS011;38541;48.130;8.378;2023-08-20T03:33:34;5.30;;;4.60;;
52248;SDS011;38541;48.130;8.378;2023-08-20T03:36:00;5.38;;;4.40;;
52248;SDS011;38541;48.130;8.378;2023-08-20T03:38:27;4.20;;;3.90;;
52248;SDS011;38541;48.130;8.378;2023-08-20T03:40:54;4.60;;;4.20;;
52248;SDS011;38541;48.130;8.378;2023-08-20T03:43:21;4.30;;;3.90;;
52248;SDS011;38541;48.130;8.378;2023-08-20T03:45:51;5.43;;;4.85;;
52248;SDS011;38541;48.130;8.378;2023-08-20T03:48:18;4.57;;;4.20;;
52248;SDS011;38541;48.130;8.378;2023-08-20T03:50:44;5.40;;;4.95;;
52248;SDS011;38541;48.130;8.378;2023-08-20T03:53:11;5.80;;;4.55;;
52248;SDS011;38541;48.130;8.378;2023-08-20T03:55:37;4.75;;;4.35;;
52248;SDS011;38541;48.130;8.378;2023-08-20T03:58:04;5.53;;;4.82;;
52248;SDS011;38541;48.130;8.378;2023-08-20T04:00:30;5.35;;;4.60;;
52248;SDS011;38541;48.130;8.378;2023-08-20T04:02:57;4.60;;;4.20;;
52248;SDS011;38541;48.130;8.378;2023-08-20T04:05:24;3.80;;;3.50;;
52248;SDS011;38541;48.130;8.378;2023-08-20T04:07:50;6.78;;;4.35;;
52248;SDS011;38541;48.130;8.378;2023-08-20T04:10:19;5.13;;;4.63;;
52248;SDS011;38541;48.130;8.378;2023-08-20T04:12:46;4.18;;;3.78;;
52248;SDS011;38541;48.130;8.378;2023-08-20T04:15:12;4.28;;;3.92;;
52248;SDS011;38541;48.130;8.378;2023-08-20T04:17:39;5.85;;;4.30;;
52248;SDS011;38541;48.130;8.378;2023-08-20T04:20:06;5.43;;;4.90;;
52248;SDS011;38541;48.130;8.378;2023-08-20T04:22:35;5.13;;;4.63;;
52248;SDS011;38541;48.130;8.378;2023-08-20T04:25:03;4.95;;;4.50;;
52248;SDS011;38541;48.130;8.378;2023-08-20T04:27:32;4.93;;;4.35;;
52248;SDS011;38541;48.130;8.378;2023-08-20T04:30:00;4.97;;;4.55;;
52248;SDS011;38541;48.130;8.378;2023-08-20T04:32:27;4.55;;;4.15;;
52248;SDS011;38541;48.130;8.378;2023-08-20T04:34:54;4.55;;;4.15;;
52248;SDS011;38541;48.130;8.378;2023-08-20T04:37:22;5.30;;;4.80;;
52248;SDS011;38541;48.130;8.378;2023-08-20T04:39:50;5.13;;;4.63;;
52248;SDS011;38541;48.130;8.378;2023-08-20T04:42:16;5.40;;;4.90;;
52248;SDS011;38541;48.130;8.378;2023-08-20T04:44:44;5.47;;;4.97;;
52248;SDS011;38541;48.130;8.378;2023-08-20T04:47:11;6.03;;;4.70;;
52248;SDS011;38541;48.130;8.378;2023-08-20T04:49:39;5.07;;;4.57;;
52248;SDS011;38541;48.130;8.378;2023-08-20T04:52:06;5.32;;;4.88;;
52248;SDS011;38541;48.130;8.378;2023-08-20T04:54:32;5.82;;;4.05;;
52248;SDS011;38541;48.130;8.378;2023-08-20T04:57:01;4.68;;;4.28;;
52248;SDS011;38541;48.130;8.378;2023-08-20T04:59:28;4.97;;;4.55;;
52248;SDS011;38541;48.130;8.378;2023-08-20T05:02:00;5.00;;;4.43;;
52248;SDS011;38541;48.130;8.378;2023-08-20T05:04:38;5.50;;;4.82;;
52248;SDS011;38541;48.130;8.378;2023-08-20T05:07:04;5.35;;;4.07;;
52248;SDS011;38541;48.130;8.378;2023-08-20T05:09:32;7.00;;;5.20;;
52248;SDS011;38541;48.130;8.378;2023-08-20T05:11:59;4.57;;;4.18;;
52248;SDS011;38541;48.130;8.378;2023-08-20T05:14:25;4.93;;;4.55;;
52248;SDS011;38541;48.130;8.378;2023-08-20T05:16:52;5.43;;;4.53;;
52248;SDS011;38541;48.130;8.378;2023-08-20T05:19:19;5.22;;;4.25;;
52248;SDS011;38541;48.130;8.378;2023-08-20T05:21:45;5.57;;;5.07;;
52248;SDS011;38541;48.130;8.378;2023-08-20T05:24:12;4.55;;;4.15;;
52248;SDS011;38541;48.130;8.378;2023-08-20T05:26:40;5.20;;;4.60;;
52248;SDS011;38541;48.130;8.378;2023-08-20T05:29:06;6.40;;;4.28;;
52248;SDS011;38541;48.130;8.378;2023-08-20T05:31:33;6.13;;;5.55;;
52248;SDS011;38541;48.130;8.378;2023-08-20T05:34:00;12.35;;;9.95;;
52248;SDS011;38541;48.130;8.378;2023-08-20T05:36:26;15.98;;;11.02;;
52248;SDS011;38541;48.130;8.378;2023-08-20T05:38:53;11.80;;;9.57;;
52248;SDS011;38541;48.130;8.378;2023-08-20T05:41:19;12.27;;;8.10;;
52248;SDS011;38541;48.130;8.378;2023-08-20T05:43:49;7.80;;;6.63;;
52248;SDS011;38541;48.130;8.378;2023-08-20T05:46:15;6.50;;;5.55;;
52248;SDS011;38541;48.130;8.378;2023-08-20T05:48:42;5.95;;;5.45;;
52248;SDS011;38541;48.130;8.378;2023-08-20T05:51:09;5.65;;;5.05;;
52248;SDS011;38541;48.130;8.378;2023-08-20T05:53:37;6.82;;;5.75;;
52248;SDS011;38541;48.130;8.378;2023-08-20T05:56:04;5.82;;;5.32;;
52248;SDS011;38541;48.130;8.378;2023-08-20T05:58:31;6.35;;;5.82;;
52248;SDS011;38541;48.130;8.378;2023-08-20T06:00:58;5.97;;;5.47;;
52248;SDS011;38541;48.130;8.378;2023-08-20T06:03:25;7.13;;;6.43;;
52248;SDS011;38541;48.130;8.378;2023-08-20T06:05:51;5.72;;;5.25;;
52248;SDS011;38541;48.130;8.378;2023-08-20T06:08:18;6.60;;;5.72;;
52248;SDS011;38541;48.130;8.378;2023-08-20T06:10:45;4.95;;;4.45;;
52248;SDS011;38541;48.130;8.378;2023-08-20T06:13:11;5.55;;;5.05;;
52248;SDS011;38541;48.130;8.378;2023-08-20T06:15:37;6.05;;;5.45;;
52248;SDS011;38541;48.130;8.378;2023-08-20T06:18:04;5.28;;;4.78;;
52248;SDS011;38541;48.130;8.378;2023-08-20T06:20:31;6.32;;;5.82;;
52248;SDS011;38541;48.130;8.378;2023-08-20T06:22:57;5.40;;;4.90;;
52248;SDS011;38541;48.130;8.378;2023-08-20T06:25:24;5.85;;;5.18;;
52248;SDS011;38541;48.130;8.378;2023-08-20T06:27:50;5.70;;;4.85;;
52248;SDS011;38541;48.130;8.378;2023-08-20T06:30:16;6.60;;;5.88;;
52248;SDS011;38541;48.130;8.378;2023-08-20T06:32:43;6.75;;;6.15;;
52248;SDS011;38541;48.130;8.378;2023-08-20T06:35:11;7.45;;;6.75;;
52248;SDS011;38541;48.130;8.378;2023-08-20T06:37:40;6.40;;;5.63;;
52248;SDS011;38541;48.130;8.378;2023-08-20T06:40:07;6.15;;;5.55;;
52248;SDS011;38541;48.130;8.378;2023-08-20T06:42:34;6.07;;;5.50;;
52248;SDS011;38541;48.130;8.378;2023-08-20T06:45:04;6.40;;;5.75;;
52248;SDS011;38541;48.130;8.378;2023-08-20T06:47:30;6.68;;;5.78;;
52248;SDS011;38541;48.130;8.378;2023-08-20T06:49:57;6.50;;;5.90;;
52248;SDS011;38541;48.130;8.378;2023-08-20T06:52:23;6.63;;;5.90;;
52248;SDS011;38541;48.130;8.378;2023-08-20T06:54:50;8.15;;;5.90;;
52248;SDS011;38541;48.130;8.378;2023-08-20T06:57:16;8.05;;;5.93;;
52248;SDS011;38541;48.130;8.378;2023-08-20T06:59:43;6.32;;;5.80;;
52248;SDS011;38541;48.130;8.378;2023-08-20T07:02:10;6.60;;;6.00;;
52248;SDS011;38541;48.130;8.378;2023-08-20T07:04:37;6.18;;;5.65;;
52248;SDS011;38541;48.130;8.378;2023-08-20T07:07:03;6.05;;;5.55;;
52248;SDS011;38541;48.130;8.378;2023-08-20T07:09:34;5.70;;;5.10;;
52248;SDS011;38541;48.130;8.378;2023-08-20T07:12:01;6.75;;;6.05;;
52248;SDS011;38541;48.130;8.378;2023-08-20T07:14:27;6.35;;;5.82;;
52248;SDS011;38541;48.130;8.378;2023-08-20T07:16:54;6.88;;;5.95;;
52248;SDS011;38541;48.130;8.378;2023-08-20T07:19:20;8.48;;;7.20;;
52248;SDS011;38541;48.130;8.378;2023-08-20T07:21:47;7.45;;;6.35;;
52248;SDS011;38541;48.130;8.378;2023-08-20T07:24:14;7.32;;;6.63;;
52248;SDS011;38541;48.130;8.378;2023-08-20T07:26:40;8.30;;;5.70;;
52248;SDS011;38541;48.130;8.378;2023-08-20T07:29:07;7.47;;;5.85;;
52248;SDS011;38541;48.130;8.378;2023-08-20T07:31:33;5.57;;;5.07;;
52248;SDS011;38541;48.130;8.378;2023-08-20T07:34:00;6.30;;;5.70;;
52248;SDS011;38541;48.130;8.378;2023-08-20T07:36:31;7.18;;;6.13;;
52248;SDS011;38541;48.130;8.378;2023-08-20T07:38:58;6.25;;;5.45;;
52248;SDS011;38541;48.130;8.378;2023-08-20T07:41:27;5.68;;;5.03;;
52248;SDS011;38541;48.130;8.378;2023-08-20T07:43:54;5.50;;;5.10;;
52248;SDS011;38541;48.130;8.378;2023-08-20T07:46:21;5.57;;;5.07;;
52248;SDS011;38541;48.130;8.378;2023-08-20T07:48:47;6.03;;;5.45;;
52248;SDS011;38541;48.130;8.378;2023-08-20T07:51:14;16.23;;;13.40;;
52248;SDS011;38541;48.130;8.378;2023-08-20T07:53:40;9.82;;;7.57;;
52248;SDS011;38541;48.130;8.378;2023-08-20T07:56:07;6.65;;;6.05;;
52248;SDS011;38541;48.130;8.378;2023-08-20T07:58:35;5.95;;;5.40;;
52248;SDS011;38541;48.130;8.378;2023-08-20T08:01:01;5.85;;;5.25;;
52248;SDS011;38541;48.130;8.378;2023-08-20T08:03:27;6.32;;;5.63;;
52248;SDS011;38541;48.130;8.378;2023-08-20T08:05:54;5.43;;;4.93;;
52248;SDS011;38541;48.130;8.378;2023-08-20T08:08:21;5.72;;;5.13;;
52248;SDS011;38541;48.130;8.378;2023-08-20T08:10:48;5.90;;;5.40;;
52248;SDS011;38541;48.130;8.378;2023-08-20T08:13:19;6.72;;;4.57;;
52248;SDS011;38541;48.130;8.378;2023-08-20T08:15:47;10.82;;;5.07;;
52248;SDS011;38541;48.130;8.378;2023-08-20T08:18:15;5.03;;;4.32;;
52248;SDS011;38541;48.130;8.378;2023-08-20T08:20:41;6.53;;;5.22;;
52248;SDS011;38541;48.130;8.378;2023-08-20T08:23:08;5.75;;;5.25;;
52248;SDS011;38541;48.130;8.378;2023-08-20T08:25:35;5.35;;;4.82;;
52248;SDS011;38541;48.130;8.378;2023-08-20T08:28:01;6.00;;;5.13;;
52248;SDS011;38541;48.130;8.378;2023-08-20T08:30:29;4.70;;;4.32;;
52248;SDS011;38541;48.130;8.378;2023-08-20T08:32:56;6.63;;;4.85;;
52248;SDS011;38541;48.130;8.378;2023-08-20T08:35:22;6.63;;;4.70;;
52248;SDS011;38541;48.130;8.378;2023-08-20T08:37:49;4.78;;;4.38;;
52248;SDS011;38541;48.130;8.378;2023-08-20T08:40:16;5.25;;;4.25;;
52248;SDS011;38541;48.130;8.378;2023-08-20T08:42:42;4.93;;;3.88;;
52248;SDS011;38541;48.130;8.378;2023-08-20T08:45:09;5.78;;;4.07;;
52248;SDS011;38541;48.130;8.378;2023-08-20T08:47:38;4.50;;;4.10;;
52248;SDS011;38541;48.130;8.378;2023-08-20T08:50:06;4.80;;;4.00;;
52248;SDS011;38541;48.130;8.378;2023-08-20T08:52:33;5.13;;;3.85;;
52248;SDS011;38541;48.130;8.378;2023-08-20T08:55:02;4.72;;;4.22;;
52248;SDS011;38541;48.130;8.378;2023-08-20T08:57:30;5.32;;;3.83;;
52248;SDS011;38541;48.130;8.378;2023-08-20T08:59:57;4.68;;;4.05;;
52248;SDS011;38541;48.130;8.378;2023-08-20T09:02:23;4.97;;;4.47;;
52248;SDS011;38541;48.130;8.378;2023-08-20T09:04:50;5.85;;;5.32;;
52248;SDS011;38541;48.130;8.378;2023-08-20T09:07:18;7.43;;;5.25;;
52248;SDS011;38541;48.130;8.378;2023-08-20T09:09:45;9.50;;;7.85;;
52248;SDS011;38541;48.130;8.378;2023-08-20T09:12:15;5.63;;;5.13;;
52248;SDS011;38541;48.130;8.378;2023-08-20T09:14:47;4.63;;;4.10;;
52248;SDS011;38541;48.130;8.378;2023-08-20T09:17:15;4.65;;;4.25;;
52248;SDS011;38541;48.130;8.378;2023-08-20T09:19:43;4.25;;;3.85;;
52248;SDS011;38541;48.130;8.378;2023-08-20T09:22:13;4.60;;;4.20;;
52248;SDS011;38541;48.130;8.378;2023-08-20T09:24:44;4.32;;;3.97;;
52248;SDS011;38541;48.130;8.378;2023-08-20T09:27:12;6.28;;;3.78;;
52248;SDS011;38541;48.130;8.378;2023-08-20T09:29:49;3.63;;;3.28;;
52248;SDS011;38541;48.130;8.378;2023-08-20T09:32:21;5.28;;;4.20;;
52248;SDS011;38541;48.130;8.378;2023-08-20T09:34:49;4.30;;;3.95;;
52248;SDS011;38541;48.130;8.378;2023-08-20T09:37:18;4.90;;;4.40;;
52248;SDS011;38541;48.130;8.378;2023-08-20T09:39:52;4.68;;;4.28;;
52248;SDS011;38541;48.130;8.378;2023-08-20T09:42:46;3.97;;;3.67;;
52248;SDS011;38541;48.130;8.378;2023-08-20T09:45:13;6.25;;;3.83;;
52248;SDS011;38541;48.130;8.378;2023-08-20T09:47:40;6.20;;;5.47;;
52248;SDS011;38541;48.130;8.378;2023-08-20T09:50:10;5.80;;;4.30;;
52248;SDS011;38541;48.130;8.378;2023-08-20T09:52:39;5.57;;;3.92;;
52248;SDS011;38541;48.130;8.378;2023-08-20T09:55:20;4.20;;;3.90;;
52248;SDS011;38541;48.130;8.378;2023-08-20T09:57:48;4.63;;;4.15;;
52248;SDS011;38541;48.130;8.378;2023-08-20T10:00:14;4.25;;;3.50;;
52248;SDS011;38541;48.130;8.378;2023-08-20T10:02:42;4.30;;;3.90;;
52248;SDS011;38541;48.130;8.378;2023-08-20T10:05:09;3.97;;;3.58;;
52248;SDS011;38541;48.130;8.378;2023-08-20T10:07:37;4.63;;;4.22;;
52248;SDS011;38541;48.130;8.378;2023-08-20T10:10:05;4.43;;;4.03;;
52248;SDS011;38541;48.130;8.378;2023-08-20T10:12:37;4.75;;;4.25;;
52248;SDS011;38541;48.130;8.378;2023-08-20T10:15:08;5.57;;;3.85;;
52248;SDS011;38541;48.130;8.378;2023-08-20T10:17:37;4.65;;;4.00;;
52248;SDS011;38541;48.130;8.378;2023-08-20T10:20:06;4.55;;;4.15;;
52248;SDS011;38541;48.130;8.378;2023-08-20T10:22:37;4.65;;;4.25;;
52248;SDS011;38541;48.130;8.378;2023-08-20T10:25:06;5.72;;;3.90;;
52248;SDS011;38541;48.130;8.378;2023-08-20T10:27:34;4.85;;;3.97;;
52248;SDS011;38541;48.130;8.378;2023-08-20T10:30:10;5.57;;;4.85;;
52248;SDS011;38541;48.130;8.378;2023-08-20T10:32:46;4.25;;;3.85;;
52248;SDS011;38541;48.130;8.378;2023-08-20T10:35:17;4.70;;;4.05;;
52248;SDS011;38541;48.130;8.378;2023-08-20T10:43:39;4.28;;;3.42;;
52248;SDS011;38541;48.130;8.378;2023-08-20T10:48:47;4.22;;;3.92;;
52248;SDS011;38541;48.130;8.378;2023-08-20T10:51:34;4.43;;;3.95;;
52248;SDS011;38541;48.130;8.378;2023-08-20T10:54:03;6.05;;;4.43;;
52248;SDS011;38541;48.130;8.378;2023-08-20T10:59:08;4.18;;;3.70;;
52248;SDS011;38541;48.130;8.378;2023-08-20T11:01:36;6.05;;;4.20;;
52248;SDS011;38541;48.130;8.378;2023-08-20T11:04:03;6.55;;;4.00;;
52248;SDS011;38541;48.130;8.378;2023-08-20T11:06:33;4.10;;;3.80;;
52248;SDS011;38541;48.130;8.378;2023-08-20T11:09:00;4.55;;;3.67;;
52248;SDS011;38541;48.130;8.378;2023-08-20T11:11:29;4.50;;;4.10;;
52248;SDS011;38541;48.130;8.378;2023-08-20T11:13:56;6.15;;;4.10;;
52248;SDS011;38541;48.130;8.378;2023-08-20T11:16:23;4.28;;;3.80;;
52248;SDS011;38541;48.130;8.378;2023-08-20T11:18:51;6.05;;;3.85;;
52248;SDS011;38541;48.130;8.378;2023-08-20T11:21:19;4.05;;;3.65;;
52248;SDS011;38541;48.130;8.378;2023-08-20T11:23:46;5.88;;;4.50;;
52248;SDS011;38541;48.130;8.378;2023-08-20T11:26:17;4.65;;;3.78;;
52248;SDS011;38541;48.130;8.378;2023-08-20T11:28:46;4.47;;;4.03;;
52248;SDS011;38541;48.130;8.378;2023-08-20T11:31:13;4.38;;;3.97;;
52248;SDS011;38541;48.130;8.378;2023-08-20T11:33:40;4.25;;;3.92;;
52248;SDS011;38541;48.130;8.378;2023-08-20T11:36:06;5.97;;;4.18;;
52248;SDS011;38541;48.130;8.378;2023-08-20T11:38:33;4.68;;;4.28;;
52248;SDS011;38541;48.130;8.378;2023-08-20T11:41:00;3.92;;;3.63;;
52248;SDS011;38541;48.130;8.378;2023-08-20T11:43:27;4.35;;;3.83;;
52248;SDS011;38541;48.130;8.378;2023-08-20T11:45:54;4.15;;;3.85;;
52248;SDS011;38541;48.130;8.378;2023-08-20T11:48:21;4.15;;;3.75;;
52248;SDS011;38541;48.130;8.378;2023-08-20T11:50:51;4.15;;;3.75;;
52248;SDS011;38541;48.130;8.378;2023-08-20T11:53:21;4.72;;;3.72;;
52248;SDS011;38541;48.130;8.378;2023-08-20T11:55:51;6.78;;;3.78;;
52248;SDS011;38541;48.130;8.378;2023-08-20T11:58:18;5.88;;;3.80;;
52248;SDS011;38541;48.130;8.378;2023-08-20T12:00:48;5.35;;;4.15;;
52248;SDS011;38541;48.130;8.378;2023-08-20T12:03:17;3.67;;;3.38;;
52248;SDS011;38541;48.130;8.378;2023-08-20T12:05:44;5.10;;;3.55;;
52248;SDS011;38541;48.130;8.378;2023-08-20T12:08:14;4.15;;;3.80;;
52248;SDS011;38541;48.130;8.378;2023-08-20T12:10:42;4.47;;;4.07;;
52248;SDS011;38541;48.130;8.378;2023-08-20T12:13:09;4.43;;;4.05;;
52248;SDS011;38541;48.130;8.378;2023-08-20T12:15:36;4.55;;;4.03;;
52248;SDS011;38541;48.130;8.378;2023-08-20T12:18:03;4.10;;;3.80;;
52248;SDS011;38541;48.130;8.378;2023-08-20T12:20:32;4.32;;;3.78;;
52248;SDS011;38541;48.130;8.378;2023-08-20T12:23:02;5.10;;;3.80;;
52248;SDS011;38541;48.130;8.378;2023-08-20T12:25:31;4.22;;;3.75;;
52248;SDS011;38541;48.130;8.378;2023-08-20T12:28:00;4.57;;;4.15;;
52248;SDS011;38541;48.130;8.378;2023-08-20T12:30:29;4.80;;;3.65;;
52248;SDS011;38541;48.130;8.378;2023-08-20T12:32:56;3.67;;;3.38;;
52248;SDS011;38541;48.130;8.378;2023-08-20T12:35:23;4.20;;;3.85;;
52248;SDS011;38541;48.130;8.378;2023-08-20T12:37:49;3.97;;;3.60;;
52248;SDS011;38541;48.130;8.378;2023-08-20T12:40:16;8.38;;;4.28;;
52248;SDS011;38541;48.130;8.378;2023-08-20T12:42:43;4.45;;;3.78;;
52248;SDS011;38541;48.130;8.378;2023-08-20T12:45:10;4.18;;;3.78;;
52248;SDS011;38541;48.130;8.378;2023-08-20T12:47:39;6.28;;;3.90;;
52248;SDS011;38541;48.130;8.378;2023-08-20T12:50:06;7.20;;;3.90;;
52248;SDS011;38541;48.130;8.378;2023-08-20T12:52:33;4.72;;;4.30;;
52248;SDS011;38541;48.130;8.378;2023-08-20T12:54:59;3.72;;;3.42;;
52248;SDS011;38541;48.130;8.378;2023-08-20T12:57:26;4.82;;;3.53;;
52248;SDS011;38541;48.130;8.378;2023-08-20T12:59:52;4.13;;;3.83;;
52248;SDS011;38541;48.130;8.378;2023-08-20T13:02:19;5.57;;;3.58;;
52248;SDS011;38541;48.130;8.378;2023-08-20T13:04:46;4.18;;;3.75;;
52248;SDS011;38541;48.130;8.378;2023-08-20T13:07:14;3.97;;;3.63;;
52248;SDS011;38541;48.130;8.378;2023-08-20T13:09:40;4.13;;;3.28;;
52248;SDS011;38541;48.130;8.378;2023-08-20T13:12:07;9.15;;;4.00;;
52248;SDS011;38541;48.130;8.378;2023-08-20T13:14:39;2.90;;;2.70;;
52248;SDS011;38541;48.130;8.378;2023-08-20T13:17:07;3.78;;;3.47;;
52248;SDS011;38541;48.130;8.378;2023-08-20T13:19:34;4.22;;;3.25;;
52248;SDS011;38541;48.130;8.378;2023-08-20T13:22:00;3.50;;;3.20;;
52248;SDS011;38541;48.130;8.378;2023-08-20T13:24:27;5.95;;;4.35;;
52248;SDS011;38541;48.130;8.378;2023-08-20T13:27:05;5.00;;;3.85;;
52248;SDS011;38541;48.130;8.378;2023-08-20T13:29:31;5.03;;;3.80;;
52248;SDS011;38541;48.130;8.378;2023-08-20T13:31:58;5.00;;;3.33;;
52248;SDS011;38541;48.130;8.378;2023-08-20T13:34:24;5.47;;;3.67;;
52248;SDS011;38541;48.130;8.378;2023-08-20T13:36:51;4.05;;;3.72;;
52248;SDS011;38541;48.130;8.378;2023-08-20T13:39:17;4.45;;;3.30;;
52248;SDS011;38541;48.130;8.378;2023-08-20T13:41:45;3.45;;;3.15;;
52248;SDS011;38541;48.130;8.378;2023-08-20T13:44:12;3.45;;;3.20;;
52248;SDS011;38541;48.130;8.378;2023-08-20T13:46:39;4.28;;;3.38;;
52248;SDS011;38541;48.130;8.378;2023-08-20T13:49:05;3.90;;;3.45;;
52248;SDS011;38541;48.130;8.378;2023-08-20T13:51:31;6.63;;;3.72;;
52248;SDS011;38541;48.130;8.378;2023-08-20T13:53:58;3.58;;;3.25;;
52248;SDS011;38541;48.130;8.378;2023-08-20T13:56:24;3.60;;;3.30;;
52248;SDS011;38541;48.130;8.378;2023-08-20T13:58:52;6.10;;;3.42;;
52248;SDS011;38541;48.130;8.378;2023-08-20T14:01:19;6.65;;;6.03;;
52248;SDS011;38541;48.130;8.378;2023-08-20T14:03:46;6.35;;;4.68;;
52248;SDS011;38541;48.130;8.378;2023-08-20T14:06:13;5.18;;;4.72;;
52248;SDS011;38541;48.130;8.378;2023-08-20T14:08:39;4.20;;;3.90;;
52248;SDS011;38541;48.130;8.378;2023-08-20T14:11:06;4.32;;;3.70;;
52248;SDS011;38541;48.130;8.378;2023-08-20T14:13:33;4.63;;;4.10;;
52248;SDS011;38541;48.130;8.378;2023-08-20T14:15:59;5.13;;;4.57;;
52248;SDS011;38541;48.130;8.378;2023-08-20T14:18:27;4.45;;;4.05;;
52248;SDS011;38541;48.130;8.378;2023-08-20T14:20:53;4.78;;;4.30;;
52248;SDS011;38541;48.130;8.378;2023-08-20T14:23:20;4.88;;;3.90;;
52248;SDS011;38541;48.130;8.378;2023-08-20T14:25:46;6.90;;;5.00;;
52248;SDS011;38541;48.130;8.378;2023-08-20T14:28:13;6.13;;;4.40;;
52248;SDS011;38541;48.130;8.378;2023-08-20T14:30:39;5.18;;;4.68;;
52248;SDS011;38541;48.130;8.378;2023-08-20T14:33:06;5.07;;;4.35;;
52248;SDS011;38541;48.130;8.378;2023-08-20T14:35:33;4.50;;;4.10;;
52248;SDS011;38541;48.130;8.378;2023-08-20T14:37:59;6.68;;;4.40;;
52248;SDS011;38541;48.130;8.378;2023-08-20T14:40:25;6.20;;;4.72;;
52248;SDS011;38541;48.130;8.378;2023-08-20T14:42:52;7.75;;;4.57;;
52248;SDS011;38541;48.130;8.378;2023-08-20T14:45:18;8.93;;;5.07;;
52248;SDS011;38541;48.130;8.378;2023-08-20T14:47:45;7.95;;;5.07;;
52248;SDS011;38541;48.130;8.378;2023-08-20T14:50:11;5.30;;;4.78;;
52248;SDS011;38541;48.130;8.378;2023-08-20T14:52:38;7.15;;;4.30;;
52248;SDS011;38541;48.130;8.378;2023-08-20T14:55:05;4.90;;;4.40;;
52248;SDS011;38541;48.130;8.378;2023-08-20T14:57:34;5.10;;;4.65;;
52248;SDS011;38541;48.130;8.378;2023-08-20T15:00:16;6.10;;;4.80;;
52248;SDS011;38541;48.130;8.378;2023-08-20T15:02:48;5.80;;;4.82;;
52248;SDS011;38541;48.130;8.378;2023-08-20T15:05:14;6.93;;;5.60;;
52248;SDS011;38541;48.130;8.378;2023-08-20T15:07:41;5.85;;;5.18;;
52248;SDS011;38541;48.130;8.378;2023-08-20T15:10:08;6.28;;;5.68;;